createdAt,value
2018-11-11T00:00:56.234Z,58.60
2018-11-11T00:03:24.753Z,58.70
2018-11-11T00:05:53.367Z,58.70
2018-11-11T00:08:22.098Z,58.70
2018-11-11T00:10:50.639Z,58.80
2018-11-11T00:13:19.255Z,59.40
2018-11-11T00:15:47.855Z,58.80
2018-11-11T00:18:16.393Z,58.80
2018-11-11T00:20:45.001Z,58.90
2018-11-11T00:23:13.529Z,58.80
2018-11-11T00:25:42.063Z,58.80
2018-11-11T00:28:10.621Z,58.80
2018-11-11T00:30:39.157Z,58.80
2018-11-11T00:33:07.758Z,58.90
2018-11-11T00:35:36.318Z,58.90
2018-11-11T00:38:05.244Z,58.90
2018-11-11T00:40:33.943Z,58.80
2018-11-11T00:43:02.715Z,58.90
2018-11-11T00:45:31.272Z,58.90
2018-11-11T00:47:59.819Z,58.90
2018-11-11T00:50:28.429Z,58.90
2018-11-11T00:52:57.540Z,58.90
2018-11-11T00:55:30.426Z,58.90
2018-11-11T00:57:59.062Z,59.50
2018-11-11T01:00:27.853Z,59.20
2018-11-11T01:02:56.385Z,59.00
2018-11-11T01:05:24.938Z,58.90
2018-11-11T01:07:53.524Z,58.90
2018-11-11T01:10:22.487Z,58.90
2018-11-11T01:12:51.111Z,58.90
2018-11-11T01:15:19.694Z,58.90
2018-11-11T01:17:48.337Z,58.90
2018-11-11T01:20:17.952Z,58.90
2018-11-11T01:22:47.065Z,58.90
2018-11-11T01:25:16.988Z,58.90
2018-11-11T01:27:45.661Z,59.00
2018-11-11T01:30:14.298Z,59.00
2018-11-11T01:32:42.946Z,58.90
2018-11-11T01:35:12.842Z,59.20
2018-11-11T01:37:42.043Z,59.00
2018-11-11T01:40:10.724Z,58.90
2018-11-11T01:42:39.266Z,58.90
2018-11-11T01:45:14.768Z,58.90
2018-11-11T01:47:43.888Z,58.90
2018-11-11T01:50:13.058Z,58.90
2018-11-11T01:52:42.051Z,58.90
2018-11-11T01:55:11.397Z,58.90
2018-11-11T01:57:40.085Z,58.90
2018-11-11T02:00:11.017Z,58.90
2018-11-11T02:02:39.664Z,58.90
2018-11-11T02:05:09.583Z,58.90
2018-11-11T02:07:38.228Z,58.90
2018-11-11T02:10:07.792Z,58.90
2018-11-11T02:12:36.334Z,58.90
2018-11-11T02:15:05.333Z,58.90
2018-11-11T02:17:34.029Z,58.90
2018-11-11T02:20:03.139Z,58.90
2018-11-11T02:22:31.824Z,58.90
2018-11-11T02:25:00.334Z,58.90
2018-11-11T02:27:28.890Z,58.90
2018-11-11T02:29:57.439Z,58.90
2018-11-11T02:32:26.115Z,58.90
2018-11-11T02:34:54.751Z,58.90
2018-11-11T02:37:23.536Z,58.90
2018-11-11T02:39:52.091Z,58.90
2018-11-11T02:42:20.757Z,58.90
2018-11-11T02:44:49.295Z,58.90
2018-11-11T02:47:17.870Z,58.90
2018-11-11T02:49:46.415Z,58.90
2018-11-11T02:52:14.980Z,59.00
2018-11-11T02:54:43.617Z,59.00
2018-11-11T02:57:12.481Z,58.90
2018-11-11T02:59:41.069Z,59.00
2018-11-11T03:02:09.626Z,59.00
2018-11-11T03:04:38.191Z,58.90
2018-11-11T03:07:06.738Z,58.80
2018-11-11T03:09:35.382Z,59.40
2018-11-11T03:12:04.028Z,58.80
2018-11-11T03:14:32.764Z,58.80
2018-11-11T03:17:01.398Z,58.80
2018-11-11T03:19:29.945Z,58.80
2018-11-11T03:21:58.757Z,58.80
2018-11-11T03:24:27.370Z,59.30
2018-11-11T03:26:55.918Z,58.80
2018-11-11T03:29:24.435Z,58.90
2018-11-11T03:31:52.959Z,58.90
2018-11-11T03:34:21.479Z,58.90
2018-11-11T03:36:49.997Z,58.80
2018-11-11T03:39:18.523Z,58.80
2018-11-11T03:41:47.296Z,58.80
2018-11-11T03:44:15.848Z,58.90
2018-11-11T03:46:44.378Z,58.90
2018-11-11T03:49:13.306Z,58.90
2018-11-11T03:51:41.910Z,58.80
2018-11-11T03:54:10.498Z,58.90
2018-11-11T03:56:39.358Z,58.90
2018-11-11T03:59:07.949Z,58.80
2018-11-11T04:01:36.475Z,58.80
2018-11-11T04:04:05.291Z,58.80
2018-11-11T04:06:33.879Z,58.80
2018-11-11T04:09:02.492Z,59.40
2018-11-11T04:11:31.036Z,58.90
2018-11-11T04:13:59.575Z,58.70
2018-11-11T04:16:28.135Z,58.70
2018-11-11T04:18:56.726Z,58.80
2018-11-11T04:21:25.309Z,58.80
2018-11-11T04:23:53.821Z,58.70
2018-11-11T04:26:22.384Z,58.80
2018-11-11T04:28:51.267Z,58.80
2018-11-11T04:31:19.974Z,58.80
2018-11-11T04:33:48.504Z,58.70
2018-11-11T04:36:17.055Z,58.80
2018-11-11T04:38:45.604Z,58.80
2018-11-11T04:41:14.637Z,58.80
2018-11-11T04:43:43.465Z,58.70
2018-11-11T04:46:12.068Z,58.70
2018-11-11T04:48:41.123Z,59.10
2018-11-11T04:51:10.525Z,58.70
2018-11-11T04:53:39.098Z,58.80
2018-11-11T04:56:07.922Z,58.80
2018-11-11T04:58:36.462Z,58.70
2018-11-11T05:01:05.039Z,58.80
2018-11-11T05:03:33.572Z,58.80
2018-11-11T05:06:02.300Z,58.80
2018-11-11T05:08:30.866Z,59.30
2018-11-11T05:10:59.437Z,58.80
2018-11-11T05:13:28.039Z,58.80
2018-11-11T05:15:56.679Z,58.80
2018-11-11T05:18:25.469Z,58.80
2018-11-11T05:20:54.011Z,58.80
2018-11-11T05:23:22.584Z,58.80
2018-11-11T05:25:51.108Z,58.70
2018-11-11T05:28:19.671Z,58.70
2018-11-11T05:30:48.220Z,58.80
2018-11-11T05:33:16.762Z,58.80
2018-11-11T05:35:45.294Z,58.80
2018-11-11T05:38:14.023Z,58.80
2018-11-11T05:40:42.553Z,58.80
2018-11-11T05:43:11.361Z,58.80
2018-11-11T05:45:40.450Z,58.70
2018-11-11T05:48:08.986Z,58.80
2018-11-11T05:50:37.562Z,58.70
2018-11-11T05:53:06.111Z,58.70
2018-11-11T05:55:34.699Z,58.70
2018-11-11T05:58:03.258Z,58.70
2018-11-11T06:00:32.273Z,58.70
2018-11-11T06:03:00.809Z,58.70
2018-11-11T06:05:29.593Z,58.70
2018-11-11T06:07:58.145Z,58.70
2018-11-11T06:10:27.447Z,58.70
2018-11-11T06:12:56.249Z,58.70
2018-11-11T06:15:24.850Z,58.70
2018-11-11T06:17:53.395Z,58.70
2018-11-11T06:20:21.911Z,58.70
2018-11-11T06:22:50.767Z,58.70
2018-11-11T06:25:19.320Z,58.70
2018-11-11T06:27:47.932Z,58.70
2018-11-11T06:30:16.489Z,58.70
2018-11-11T06:32:45.136Z,58.70
2018-11-11T06:35:14.273Z,58.70
2018-11-11T06:37:42.827Z,58.70
2018-11-11T06:40:12.620Z,58.70
2018-11-11T06:42:42.009Z,59.20
2018-11-11T06:45:12.345Z,58.70
2018-11-11T06:47:41.630Z,58.70
2018-11-11T06:50:11.456Z,58.70
2018-11-11T06:52:41.057Z,58.70
2018-11-11T06:55:09.867Z,58.70
2018-11-11T06:57:39.281Z,58.70
2018-11-11T07:00:10.701Z,58.70
2018-11-11T07:02:40.571Z,58.70
2018-11-11T07:05:09.938Z,58.70
2018-11-11T07:07:38.621Z,58.70
2018-11-11T07:10:07.143Z,58.70
2018-11-11T07:12:35.902Z,58.70
2018-11-11T07:15:04.950Z,58.70
2018-11-11T07:17:34.871Z,58.70
2018-11-11T07:20:04.716Z,58.70
2018-11-11T07:22:34.969Z,58.70
2018-11-11T07:25:05.000Z,58.70
2018-11-11T07:27:34.628Z,58.70
2018-11-11T07:30:04.575Z,58.70
2018-11-11T07:32:34.820Z,58.70
2018-11-11T07:35:04.677Z,58.70
2018-11-11T07:37:35.271Z,58.70
2018-11-11T07:40:12.499Z,58.70
2018-11-11T07:42:42.778Z,58.70
2018-11-11T07:45:12.591Z,58.70
2018-11-11T07:47:42.451Z,58.60
2018-11-11T07:50:12.611Z,58.70
2018-11-11T07:52:42.431Z,58.70
2018-11-11T07:55:13.576Z,58.70
2018-11-11T07:57:43.595Z,58.70
2018-11-11T08:00:13.513Z,58.60
2018-11-11T08:02:42.427Z,58.70
2018-11-11T08:05:11.580Z,58.70
2018-11-11T08:07:40.188Z,58.70
2018-11-11T08:10:20.223Z,58.60
2018-11-11T08:12:48.874Z,58.70
2018-11-11T08:15:17.400Z,58.60
2018-11-11T08:17:46.079Z,58.60
2018-11-11T08:20:15.282Z,58.70
2018-11-11T08:22:45.116Z,58.60
2018-11-11T08:25:13.917Z,58.60
2018-11-11T08:27:42.655Z,58.70
2018-11-11T08:30:11.333Z,58.60
2018-11-11T08:32:40.164Z,58.70
2018-11-11T08:35:09.823Z,58.60
2018-11-11T08:37:39.066Z,58.60
2018-11-11T08:40:08.585Z,58.70
2018-11-11T08:42:37.804Z,58.60
2018-11-11T08:45:08.753Z,58.50
2018-11-11T08:47:37.531Z,58.60
2018-11-11T08:50:07.591Z,58.50
2018-11-11T08:52:36.372Z,58.50
2018-11-11T08:55:05.200Z,58.50
2018-11-11T08:57:34.042Z,58.80
2018-11-11T09:00:02.596Z,58.50
2018-11-11T09:02:32.010Z,58.60
2018-11-11T09:05:01.635Z,58.50
2018-11-11T09:07:30.720Z,58.50
2018-11-11T09:09:59.962Z,58.50
2018-11-11T09:12:37.415Z,58.50
2018-11-11T09:15:07.680Z,58.50
2018-11-11T09:17:36.230Z,58.40
2018-11-11T09:20:05.264Z,57.90
2018-11-11T09:22:34.008Z,57.30
2018-11-11T09:25:02.632Z,56.70
2018-11-11T09:27:31.340Z,56.30
2018-11-11T09:30:00.024Z,56.30
2018-11-11T09:32:28.801Z,56.30
2018-11-11T09:34:57.846Z,56.10
2018-11-11T09:37:26.706Z,55.80
2018-11-11T09:39:55.319Z,55.30
2018-11-11T09:42:23.928Z,55.00
2018-11-11T09:44:52.466Z,54.90
2018-11-11T09:47:21.024Z,55.30
2018-11-11T09:49:49.552Z,55.20
2018-11-11T09:52:18.508Z,55.10
2018-11-11T09:54:47.376Z,54.70
2018-11-11T09:57:16.048Z,54.50
2018-11-11T09:59:44.644Z,54.40
2018-11-11T10:02:13.905Z,54.90
2018-11-11T10:04:52.300Z,54.90
2018-11-11T10:07:24.971Z,54.70
2018-11-11T10:10:03.790Z,54.60
2018-11-11T10:12:41.108Z,54.20
2018-11-11T10:15:19.540Z,54.10
2018-11-11T10:17:57.221Z,54.30
2018-11-11T10:21:01.966Z,54.60
2018-11-11T10:24:07.071Z,54.60
2018-11-11T10:26:41.592Z,54.20
2018-11-11T10:29:24.453Z,54.00
2018-11-11T10:32:02.314Z,54.20
2018-11-11T10:34:35.812Z,54.60
2018-11-11T10:37:11.508Z,54.60
2018-11-11T10:39:48.860Z,54.40
2018-11-11T10:42:23.328Z,54.10
2018-11-11T10:44:57.713Z,53.90
2018-11-11T10:47:33.694Z,54.20
2018-11-11T10:50:05.654Z,54.60
2018-11-11T10:52:35.146Z,54.40
2018-11-11T10:55:04.587Z,54.30
2018-11-11T10:57:34.130Z,54.10
2018-11-11T11:00:03.610Z,54.00
2018-11-11T11:02:37.791Z,54.30
2018-11-11T11:05:11.424Z,54.70
2018-11-11T11:07:40.828Z,54.50
2018-11-11T11:10:10.194Z,54.20
2018-11-11T11:12:40.085Z,54.00
2018-11-11T11:15:10.166Z,53.90
2018-11-11T11:17:39.565Z,54.20
2018-11-11T11:20:08.795Z,54.60
2018-11-11T11:22:37.905Z,54.40
2018-11-11T11:25:10.688Z,54.20
2018-11-11T11:27:41.736Z,54.00
2018-11-11T11:30:13.742Z,53.90
2018-11-11T11:32:44.294Z,54.20
2018-11-11T11:35:14.020Z,54.60
2018-11-11T11:37:44.686Z,54.50
2018-11-11T11:40:13.991Z,54.20
2018-11-11T11:42:43.487Z,54.10
2018-11-11T11:45:16.694Z,53.80
2018-11-11T11:47:46.601Z,53.90
2018-11-11T11:50:15.996Z,54.20
2018-11-11T11:52:46.473Z,54.60
2018-11-11T11:55:16.222Z,54.30
2018-11-11T11:57:55.788Z,54.20
2018-11-11T12:00:25.217Z,53.90
2018-11-11T12:02:55.146Z,54.00
2018-11-11T12:05:24.753Z,54.40
2018-11-11T12:07:54.393Z,54.60
2018-11-11T12:10:24.247Z,54.40
2018-11-11T12:12:54.587Z,54.20
2018-11-11T12:15:23.861Z,54.00
2018-11-11T12:17:53.132Z,54.00
2018-11-11T12:20:22.959Z,54.40
2018-11-11T12:22:52.528Z,54.60
2018-11-11T12:25:21.730Z,54.40
2018-11-11T12:27:51.142Z,54.20
2018-11-11T12:30:20.465Z,53.90
2018-11-11T12:32:49.874Z,54.00
2018-11-11T12:35:19.025Z,54.20
2018-11-11T12:37:48.617Z,54.60
2018-11-11T12:40:18.856Z,54.50
2018-11-11T12:42:48.741Z,54.20
2018-11-11T12:45:18.381Z,54.10
2018-11-11T12:47:47.863Z,54.00
2018-11-11T12:50:18.077Z,54.20
2018-11-11T12:52:48.338Z,54.60
2018-11-11T12:55:21.026Z,54.60
2018-11-11T12:57:53.041Z,54.30
2018-11-11T13:00:24.489Z,54.10
2018-11-11T13:02:57.689Z,53.90
2018-11-11T13:05:27.711Z,54.70
2018-11-11T13:08:01.351Z,54.40
2018-11-11T13:10:34.836Z,54.60
2018-11-11T13:13:04.965Z,54.40
2018-11-11T13:15:38.348Z,54.20
2018-11-11T13:18:09.446Z,54.00
2018-11-11T13:20:41.960Z,54.20
2018-11-11T13:23:14.474Z,54.50
2018-11-11T13:25:44.697Z,54.70
2018-11-11T13:28:19.107Z,54.40
2018-11-11T13:31:20.264Z,54.80
2018-11-11T13:34:00.465Z,54.00
2018-11-11T13:36:33.784Z,54.20
2018-11-11T13:39:05.186Z,54.60
2018-11-11T13:41:35.437Z,54.60
2018-11-11T13:44:05.642Z,54.40
2018-11-11T13:46:44.479Z,54.20
2018-11-11T13:52:08.218Z,54.60
2018-11-11T13:54:37.638Z,54.90
2018-11-11T13:57:10.333Z,54.60
2018-11-11T13:59:43.558Z,54.40
2018-11-11T14:02:13.398Z,54.10
2018-11-11T14:04:42.855Z,54.20
2018-11-11T14:07:12.474Z,54.60
2018-11-11T14:09:42.442Z,55.00
2018-11-11T14:12:11.914Z,55.00
2018-11-11T14:14:41.152Z,54.80
2018-11-11T14:17:10.682Z,54.50
2018-11-11T14:19:40.120Z,54.50
2018-11-11T14:22:09.566Z,54.80
2018-11-11T14:24:38.963Z,55.20
2018-11-11T14:27:08.464Z,55.10
2018-11-11T14:29:37.965Z,55.00
2018-11-11T14:34:34.691Z,54.80
2018-11-11T14:37:03.810Z,54.60
2018-11-11T14:39:33.449Z,54.90
2018-11-11T14:42:02.804Z,55.10
2018-11-11T14:44:32.119Z,55.10
2018-11-11T14:47:01.319Z,54.80
2018-11-11T14:49:30.525Z,54.60
2018-11-11T14:51:59.822Z,54.50
2018-11-11T14:54:29.004Z,54.80
2018-11-11T14:56:58.117Z,55.10
2018-11-11T14:59:27.261Z,55.10
2018-11-11T15:01:57.244Z,54.90
2018-11-11T15:04:26.470Z,54.70
2018-11-11T15:06:56.584Z,55.00
2018-11-11T15:09:25.790Z,54.60
2018-11-11T15:11:55.194Z,54.90
2018-11-11T15:14:24.399Z,55.30
2018-11-11T15:16:53.688Z,55.10
2018-11-11T15:19:23.224Z,54.80
2018-11-11T15:21:52.705Z,54.60
2018-11-11T15:24:22.076Z,54.60
2018-11-11T15:26:52.501Z,54.80
2018-11-11T15:29:21.841Z,55.20
2018-11-11T15:32:07.220Z,55.20
2018-11-11T15:34:37.741Z,54.90
2018-11-11T15:37:07.159Z,54.60
2018-11-11T15:39:36.530Z,54.80
2018-11-11T15:42:06.048Z,55.10
2018-11-11T15:44:35.837Z,55.30
2018-11-11T15:47:05.546Z,55.20
2018-11-11T15:49:35.020Z,55.00
2018-11-11T15:52:04.856Z,54.70
2018-11-11T15:54:34.410Z,54.60
2018-11-11T15:57:03.860Z,54.90
2018-11-11T15:59:33.735Z,55.10
2018-11-11T16:02:03.102Z,55.30
2018-11-11T16:04:32.369Z,55.10
2018-11-11T16:07:01.488Z,54.90
2018-11-11T16:09:30.584Z,54.70
2018-11-11T16:11:59.896Z,54.80
2018-11-11T16:14:29.824Z,55.60
2018-11-11T16:16:59.545Z,55.40
2018-11-11T16:19:28.896Z,55.70
2018-11-11T16:21:58.122Z,56.10
2018-11-11T16:24:27.458Z,56.50
2018-11-11T16:26:56.644Z,56.80
2018-11-11T16:29:26.078Z,57.00
2018-11-11T16:31:55.334Z,57.20
2018-11-11T16:34:25.678Z,57.50
2018-11-11T16:36:57.286Z,57.60
2018-11-11T16:39:26.995Z,57.80
2018-11-11T16:42:02.478Z,58.00
2018-11-11T16:44:33.393Z,58.10
2018-11-11T16:47:03.597Z,58.30
2018-11-11T16:49:35.657Z,58.40
2018-11-11T16:52:05.249Z,59.10
2018-11-11T16:54:34.745Z,58.60
2018-11-11T16:57:04.648Z,58.70
2018-11-11T16:59:34.001Z,58.80
2018-11-11T17:02:03.357Z,58.80
2018-11-11T17:04:33.754Z,58.90
2018-11-11T17:07:09.059Z,58.90
2018-11-11T17:09:38.468Z,58.90
2018-11-11T17:12:07.630Z,58.90
2018-11-11T17:14:38.078Z,59.00
2018-11-11T17:17:07.423Z,59.10
2018-11-11T17:19:36.779Z,59.10
2018-11-11T17:22:06.698Z,59.10
2018-11-11T17:24:36.269Z,59.10
2018-11-11T17:27:06.340Z,59.10
2018-11-11T17:29:35.800Z,59.10
2018-11-11T17:32:06.749Z,59.10
2018-11-11T17:34:37.527Z,59.20
2018-11-11T17:37:08.505Z,59.40
2018-11-11T17:39:39.549Z,59.20
2018-11-11T17:42:10.190Z,59.20
2018-11-11T17:44:40.568Z,59.30
2018-11-11T17:47:10.125Z,59.20
2018-11-11T17:49:39.917Z,59.30
2018-11-11T17:52:09.159Z,59.20
2018-11-11T17:54:40.579Z,59.30
2018-11-11T17:57:10.184Z,59.30
2018-11-11T17:59:40.027Z,59.30
2018-11-11T18:02:09.600Z,59.20
2018-11-11T18:04:39.344Z,59.20
2018-11-11T18:07:08.825Z,59.30
2018-11-11T18:09:38.183Z,59.30
2018-11-11T18:12:07.456Z,59.30
2018-11-11T18:14:36.601Z,59.30
2018-11-11T18:17:05.967Z,59.30
2018-11-11T18:19:36.481Z,59.30
2018-11-11T18:22:05.779Z,59.40
2018-11-11T18:24:35.110Z,59.40
2018-11-11T18:27:04.550Z,59.30
2018-11-11T18:29:33.669Z,59.40
2018-11-11T18:32:03.306Z,59.30
2018-11-11T18:34:34.008Z,59.30
2018-11-11T18:37:03.845Z,59.30
2018-11-11T18:39:34.815Z,59.30
2018-11-11T18:42:06.025Z,59.30
2018-11-11T18:44:36.190Z,59.40
2018-11-11T18:47:06.559Z,59.30
2018-11-11T18:49:35.863Z,59.40
2018-11-11T18:52:05.235Z,59.30
2018-11-11T18:54:34.294Z,59.30
2018-11-11T18:57:03.607Z,59.40
2018-11-11T18:59:33.072Z,59.30
2018-11-11T19:02:02.179Z,59.30
2018-11-11T19:04:31.522Z,59.40
2018-11-11T19:07:00.651Z,59.40
2018-11-11T19:09:29.907Z,59.40
2018-11-11T19:11:59.195Z,59.40
2018-11-11T19:14:28.391Z,59.40
2018-11-11T19:16:57.680Z,59.90
2018-11-11T19:19:26.915Z,59.40
2018-11-11T19:21:56.403Z,59.30
2018-11-11T19:24:25.600Z,59.30
2018-11-11T19:26:54.793Z,59.30
2018-11-11T19:29:24.086Z,59.30
2018-11-11T19:31:53.363Z,59.30
2018-11-11T19:34:22.637Z,59.30
2018-11-11T19:36:51.862Z,59.40
2018-11-11T19:39:21.102Z,59.90
2018-11-11T19:41:50.555Z,59.40
2018-11-11T19:44:19.776Z,59.40
2018-11-11T19:46:50.047Z,59.40
2018-11-11T19:49:19.535Z,59.40
2018-11-11T19:51:48.652Z,59.40
2018-11-11T19:54:17.899Z,59.40
2018-11-11T19:56:47.169Z,59.40
2018-11-11T19:59:16.516Z,59.30
2018-11-11T20:01:45.608Z,59.30
2018-11-11T20:04:14.902Z,59.40
2018-11-11T20:06:44.022Z,59.30
2018-11-11T20:09:14.157Z,59.30
2018-11-11T20:11:43.631Z,59.30
2018-11-11T20:14:12.847Z,59.30
2018-11-11T20:16:42.064Z,59.30
2018-11-11T20:19:11.107Z,59.30
2018-11-11T20:21:40.493Z,59.30
2018-11-11T20:24:09.686Z,59.40
2018-11-11T20:26:38.859Z,59.30
2018-11-11T20:29:08.494Z,59.40
2018-11-11T20:31:37.665Z,59.30
2018-11-11T20:34:07.111Z,59.30
2018-11-11T20:36:36.350Z,59.40
2018-11-11T20:39:08.462Z,59.30
2018-11-11T20:41:37.647Z,59.30
2018-11-11T20:44:07.327Z,59.40
2018-11-11T20:46:37.051Z,59.20
2018-11-11T20:49:06.345Z,59.30
2018-11-11T20:51:35.539Z,59.20
2018-11-11T20:54:05.223Z,59.40
2018-11-11T20:56:34.385Z,59.20
2018-11-11T20:59:03.657Z,59.30
2018-11-11T21:01:32.862Z,59.30
2018-11-11T21:04:02.046Z,59.30
2018-11-11T21:06:31.234Z,59.20
2018-11-11T21:09:00.405Z,59.20
2018-11-11T21:11:29.646Z,59.30
2018-11-11T21:13:58.952Z,59.30
2018-11-11T21:16:28.120Z,59.30
2018-11-11T21:18:57.455Z,59.30
2018-11-11T21:21:26.633Z,59.30
2018-11-11T21:23:55.837Z,59.30
2018-11-11T21:26:25.040Z,59.30
2018-11-11T21:28:54.263Z,59.30
2018-11-11T21:31:23.335Z,59.30
2018-11-11T21:33:52.543Z,59.30
2018-11-11T21:36:21.632Z,59.30
2018-11-11T21:38:51.396Z,59.20
2018-11-11T21:41:20.544Z,59.30
2018-11-11T21:43:49.828Z,59.20
2018-11-11T21:46:19.066Z,59.20
2018-11-11T21:48:48.577Z,59.20
2018-11-11T21:51:17.652Z,59.20
2018-11-11T21:53:46.978Z,59.30
2018-11-11T21:56:16.334Z,59.20
2018-11-11T21:58:45.632Z,59.20
2018-11-11T22:01:16.978Z,59.20
2018-11-11T22:03:46.155Z,59.20
2018-11-11T22:06:15.327Z,59.20
2018-11-11T22:08:44.500Z,59.20
2018-11-11T22:11:13.931Z,59.20
2018-11-11T22:13:43.032Z,59.20
2018-11-11T22:16:12.329Z,59.20
2018-11-11T22:18:41.392Z,59.20
2018-11-11T22:21:10.537Z,59.20
2018-11-11T22:23:39.705Z,59.20
2018-11-11T22:26:08.831Z,59.20
2018-11-11T22:28:37.910Z,59.20
2018-11-11T22:31:07.119Z,59.20
2018-11-11T22:33:36.320Z,59.20
2018-11-11T22:36:05.575Z,59.20
2018-11-11T22:38:34.787Z,59.20
2018-11-11T22:41:04.113Z,59.20
2018-11-11T22:43:33.190Z,59.20
2018-11-11T22:46:02.391Z,59.20
2018-11-11T22:48:31.624Z,59.20
2018-11-11T22:51:00.976Z,59.20
2018-11-11T22:53:30.328Z,59.20
2018-11-11T22:55:59.735Z,59.20
2018-11-11T22:58:29.141Z,59.20
2018-11-11T23:01:03.307Z,59.20
2018-11-11T23:03:32.506Z,59.20
2018-11-11T23:06:01.639Z,59.20
2018-11-11T23:08:30.734Z,59.20
2018-11-11T23:11:00.005Z,59.20
2018-11-11T23:13:29.295Z,59.20
2018-11-11T23:15:58.453Z,59.20
2018-11-11T23:18:27.696Z,59.20
2018-11-11T23:20:56.904Z,59.20
2018-11-11T23:23:26.090Z,59.20
2018-11-11T23:25:55.290Z,59.20
2018-11-11T23:28:24.453Z,59.20
2018-11-11T23:30:53.652Z,59.20
2018-11-11T23:33:22.815Z,59.20
2018-11-11T23:35:52.092Z,59.20
2018-11-11T23:38:21.572Z,59.20
2018-11-11T23:40:50.838Z,59.20
2018-11-11T23:43:19.995Z,59.20
2018-11-11T23:45:49.184Z,59.20
2018-11-11T23:48:18.529Z,59.20
2018-11-11T23:50:47.914Z,59.20
2018-11-11T23:53:17.128Z,59.20
2018-11-11T23:55:46.246Z,59.20
2018-11-11T23:58:15.646Z,59.20
